Time;durP1;ratioP1;P1;durP2;ratioP2;P2;SDS_P1;SDS_P2;PMS_P1;PMS_P2;Temp;Humidity;BMP_temperature;BMP_pressure;BME280_temperature;BME280_humidity;BME280_pressure;Samples;Min_cycle;Max_cycle;Signal;HPM_P1;HPM_P2
2024/04/09 00:01:32;;;;;;;0.20;0.20;;;12.70;99.90;;;;;;5522449;25;20533;-62
2024/04/09 00:04:00;;;;;;;0.00;0.00;;;12.80;99.90;;;;;;5512538;26;20019;-62
2024/04/09 00:06:28;;;;;;;0.05;0.05;;;12.90;99.90;;;;;;5511756;26;20946;-63
2024/04/09 00:08:55;;;;;;;0.05;0.05;;;12.80;99.90;;;;;;5512566;25;20372;-63
2024/04/09 00:11:22;;;;;;;0.00;0.00;;;12.90;99.90;;;;;;5511135;25;20006;-63
2024/04/09 00:13:53;;;;;;;0.15;0.15;;;12.90;99.90;;;;;;5511858;25;20016;-63
2024/04/09 00:16:22;;;;;;;0.10;0.10;;;13.00;99.90;;;;;;5511241;25;20378;-62
2024/04/09 00:18:55;;;;;;;0.40;0.00;;;13.00;99.90;;;;;;5512877;25;20006;-62
2024/04/09 00:21:23;;;;;;;0.15;0.15;;;13.10;99.90;;;;;;5478086;25;20028;-62
2024/04/09 00:23:50;;;;;;;0.10;0.10;;;13.00;99.90;;;;;;5512903;26;20025;-62
2024/04/09 00:26:17;;;;;;;0.13;0.13;;;13.00;99.90;;;;;;5478060;26;20474;-62
2024/04/09 00:28:45;;;;;;;0.10;0.00;;;13.00;99.90;;;;;;5464402;26;20016;-63
2024/04/09 00:31:13;;;;;;;0.10;0.10;;;13.10;99.90;;;;;;5511708;25;20013;-62
2024/04/09 00:33:40;;;;;;;0.05;0.05;;;13.10;99.90;;;;;;5511474;25;20037;-62
2024/04/09 00:36:09;;;;;;;0.00;0.00;;;13.10;99.90;;;;;;5496583;25;19997;-63
2024/04/09 00:38:38;;;;;;;0.00;0.00;;;13.10;99.90;;;;;;5511016;25;20005;-62
2024/04/09 00:41:10;;;;;;;0.05;0.05;;;13.10;99.90;;;;;;5481492;26;19997;-62
2024/04/09 00:43:37;;;;;;;0.10;0.10;;;13.10;99.90;;;;;;5509481;26;20408;-62
2024/04/09 00:46:05;;;;;;;0.00;0.00;;;13.00;99.90;;;;;;5511550;26;20381;-62
2024/04/09 00:48:33;;;;;;;0.10;0.10;;;13.10;99.90;;;;;;5511377;25;20005;-62
2024/04/09 00:51:00;;;;;;;0.10;0.10;;;13.10;99.90;;;;;;5512588;26;20378;-62
2024/04/09 00:53:28;;;;;;;0.00;0.00;;;13.10;99.90;;;;;;5509697;25;20019;-62
2024/04/09 00:55:56;;;;;;;0.10;0.10;;;13.20;99.90;;;;;;5514103;25;19998;-62
2024/04/09 00:58:24;;;;;;;0.10;0.10;;;13.20;99.90;;;;;;5517266;25;20375;-62
2024/04/09 01:00:53;;;;;;;0.05;0.05;;;13.20;99.90;;;;;;5519064;25;20005;-62
2024/04/09 01:03:20;;;;;;;0.20;0.20;;;13.20;99.90;;;;;;5510870;25;20444;-62
2024/04/09 01:05:47;;;;;;;0.00;0.00;;;13.10;99.90;;;;;;5524055;25;20528;-63
2024/04/09 01:08:14;;;;;;;0.10;0.10;;;13.10;99.90;;;;;;5520578;25;20001;-62
2024/04/09 01:10:42;;;;;;;0.30;0.20;;;13.30;99.90;;;;;;5518886;25;19997;-62
2024/04/09 01:13:09;;;;;;;0.10;0.10;;;13.20;99.90;;;;;;5502642;25;20016;-63
2024/04/09 01:15:36;;;;;;;0.10;0.10;;;13.20;99.90;;;;;;5510922;26;19997;-63
2024/04/09 01:18:03;;;;;;;0.10;0.10;;;13.30;99.90;;;;;;5478379;26;20006;-63
2024/04/09 01:20:30;;;;;;;0.03;0.03;;;13.30;99.90;;;;;;5512263;25;20030;-63
2024/04/09 01:22:57;;;;;;;0.10;0.00;;;13.40;99.90;;;;;;5510175;25;20450;-63
2024/04/09 01:25:25;;;;;;;0.10;0.10;;;13.30;99.90;;;;;;5511346;26;19998;-63
2024/04/09 01:27:52;;;;;;;0.00;0.00;;;13.40;99.90;;;;;;5509349;25;20452;-63
2024/04/09 01:30:19;;;;;;;0.00;0.00;;;13.40;99.90;;;;;;5495966;25;20330;-63
2024/04/09 01:32:46;;;;;;;0.00;0.00;;;13.40;99.90;;;;;;5521544;25;20028;-62
2024/04/09 01:35:14;;;;;;;0.15;0.15;;;13.30;99.90;;;;;;5509079;25;20449;-63
2024/04/09 01:37:42;;;;;;;0.10;0.10;;;13.30;99.90;;;;;;5536750;25;20001;-63
2024/04/09 01:40:10;;;;;;;0.03;0.03;;;13.40;99.90;;;;;;5532592;25;19997;-63
2024/04/09 01:42:37;;;;;;;0.00;0.00;;;13.30;99.90;;;;;;5513500;25;20011;-62
2024/04/09 01:45:05;;;;;;;0.00;0.00;;;13.40;99.90;;;;;;5519374;25;20005;-63
2024/04/09 01:47:32;;;;;;;0.10;0.10;;;13.40;99.90;;;;;;5506511;25;20339;-63
2024/04/09 01:49:59;;;;;;;0.32;0.20;;;13.40;99.90;;;;;;5478233;26;20024;-63
2024/04/09 01:52:26;;;;;;;0.00;0.00;;;13.30;99.90;;;;;;5508977;26;20012;-63
2024/04/09 01:54:53;;;;;;;0.00;0.00;;;13.40;99.90;;;;;;5526340;25;20371;-62
2024/04/09 01:57:21;;;;;;;0.00;0.00;;;13.40;99.90;;;;;;5526431;25;20471;-63
2024/04/09 01:59:48;;;;;;;0.10;0.10;;;13.40;99.90;;;;;;5510188;26;20002;-63
2024/04/09 02:02:16;;;;;;;0.20;0.20;;;13.30;99.90;;;;;;5510238;25;20767;-62
2024/04/09 02:04:44;;;;;;;0.10;0.10;;;13.30;99.90;;;;;;5510281;26;20440;-62
2024/04/09 02:07:11;;;;;;;0.00;0.00;;;13.30;99.90;;;;;;5509338;25;20005;-63
2024/04/09 02:09:39;;;;;;;0.10;0.05;;;13.30;99.90;;;;;;5510125;25;20429;-63
2024/04/09 02:12:07;;;;;;;0.10;0.10;;;13.20;99.90;;;;;;5510959;26;20029;-63
2024/04/09 02:14:35;;;;;;;0.10;0.10;;;13.20;99.90;;;;;;5509875;25;20600;-62
2024/04/09 02:17:02;;;;;;;0.10;0.10;;;13.20;99.90;;;;;;5509953;25;20006;-63
2024/04/09 02:19:29;;;;;;;0.03;0.03;;;13.20;99.90;;;;;;5510155;25;20015;-63
2024/04/09 02:21:56;;;;;;;0.10;0.10;;;13.20;99.90;;;;;;5510018;25;20011;-63
2024/04/09 02:24:24;;;;;;;0.10;0.10;;;13.10;99.90;;;;;;5510173;25;20033;-63
2024/04/09 02:26:52;;;;;;;0.10;0.10;;;13.20;99.90;;;;;;5509319;26;19997;-63
2024/04/09 02:29:20;;;;;;;0.10;0.10;;;13.10;99.90;;;;;;5510397;25;20014;-63
2024/04/09 02:31:47;;;;;;;0.03;0.03;;;13.20;99.90;;;;;;5510139;26;20439;-63
2024/04/09 02:34:14;;;;;;;0.00;0.00;;;13.10;99.90;;;;;;5510282;25;20179;-63
2024/04/09 02:36:41;;;;;;;0.20;0.13;;;13.10;99.90;;;;;;5509478;25;20082;-63
2024/04/09 02:39:08;;;;;;;0.00;0.00;;;13.20;99.90;;;;;;5510752;25;20015;-63
2024/04/09 02:41:39;;;;;;;0.00;0.00;;;13.20;99.90;;;;;;5477851;26;20008;-63
2024/04/09 02:44:07;;;;;;;0.10;0.10;;;13.20;99.90;;;;;;5508995;26;20334;-63
2024/04/09 02:46:34;;;;;;;0.10;0.10;;;13.10;99.90;;;;;;5509753;26;19998;-63
2024/04/09 02:49:03;;;;;;;0.08;0.08;;;13.00;99.90;;;;;;5508821;26;20004;-63
2024/04/09 02:51:30;;;;;;;0.10;0.10;;;13.10;99.90;;;;;;5510469;25;19993;-63
2024/04/09 02:53:57;;;;;;;0.00;0.00;;;13.00;99.90;;;;;;5508491;25;20006;-63
2024/04/09 02:56:24;;;;;;;0.00;0.00;;;13.00;99.90;;;;;;5510290;25;20457;-63
2024/04/09 02:58:51;;;;;;;0.17;0.17;;;12.90;99.90;;;;;;5508992;25;20020;-63
2024/04/09 03:01:18;;;;;;;0.08;0.08;;;12.90;99.90;;;;;;5478013;26;20466;-64
2024/04/09 03:03:45;;;;;;;0.10;0.10;;;12.90;99.90;;;;;;5508447;25;20016;-63
2024/04/09 03:06:14;;;;;;;0.10;0.10;;;12.80;99.90;;;;;;5510693;26;20041;-63
2024/04/09 03:08:42;;;;;;;0.20;0.15;;;12.70;99.90;;;;;;5508668;25;20335;-63
2024/04/09 03:11:19;;;;;;;0.10;0.10;;;12.80;99.90;;;;;;5509751;25;20012;-63
2024/04/09 03:13:51;;;;;;;0.13;0.13;;;12.70;99.90;;;;;;5507487;25;20474;-63
2024/04/09 03:16:20;;;;;;;0.00;0.00;;;12.70;99.90;;;;;;5509782;25;20364;-63
2024/04/09 03:18:50;;;;;;;0.30;0.10;;;12.70;99.90;;;;;;5508317;25;20024;-63
2024/04/09 03:21:17;;;;;;;0.10;0.10;;;12.70;99.90;;;;;;5509744;25;20025;-63
2024/04/09 03:23:44;;;;;;;0.10;0.10;;;12.80;99.90;;;;;;5506244;26;20465;-63
2024/04/09 03:26:12;;;;;;;0.20;0.20;;;12.80;99.90;;;;;;5509985;25;20444;-63
2024/04/09 03:28:40;;;;;;;0.08;0.08;;;12.80;99.90;;;;;;5475828;26;20020;-63
2024/04/09 03:31:08;;;;;;;0.10;0.10;;;12.80;99.90;;;;;;5512766;25;19997;-63
2024/04/09 03:33:35;;;;;;;0.20;0.20;;;12.80;99.90;;;;;;5437387;26;20005;-63
2024/04/09 03:36:05;;;;;;;0.10;0.10;;;12.80;99.90;;;;;;5512499;26;20440;-63
2024/04/09 03:38:32;;;;;;;0.17;0.10;;;12.80;99.90;;;;;;5513714;25;20019;-63
2024/04/09 03:41:01;;;;;;;0.10;0.10;;;12.90;99.90;;;;;;5473913;26;20349;-63
2024/04/09 03:43:28;;;;;;;0.10;0.10;;;12.90;99.90;;;;;;5501838;25;20006;-63
2024/04/09 03:46:08;;;;;;;0.10;0.10;;;13.10;99.90;;;;;;5507336;25;20875;-63
2024/04/09 03:48:35;;;;;;;0.10;0.10;;;13.00;99.90;;;;;;5478437;26;20006;-63
2024/04/09 03:51:02;;;;;;;0.10;0.10;;;13.10;99.90;;;;;;5480209;26;20764;-63
2024/04/09 03:53:30;;;;;;;0.20;0.20;;;13.10;99.90;;;;;;5512525;26;20006;-63
2024/04/09 03:55:58;;;;;;;0.10;0.10;;;13.20;99.90;;;;;;5512398;25;20045;-63
2024/04/09 03:58:31;;;;;;;5.68;0.20;;;13.10;99.90;;;;;;5479864;25;20012;-63
2024/04/09 04:01:03;;;;;;;0.10;0.10;;;13.20;99.90;;;;;;5513375;26;19998;-63
2024/04/09 04:03:32;;;;;;;0.00;0.00;;;13.20;99.90;;;;;;5511981;25;20005;-63
2024/04/09 04:06:00;;;;;;;0.05;0.05;;;13.20;99.90;;;;;;5480207;26;20002;-63
2024/04/09 04:08:33;;;;;;;0.10;0.10;;;13.20;99.90;;;;;;5511529;25;20019;-63
2024/04/09 04:11:03;;;;;;;0.00;0.00;;;13.20;99.90;;;;;;5511627;25;19998;-63
2024/04/09 04:13:32;;;;;;;0.17;0.17;;;13.20;99.90;;;;;;5511764;25;20553;-63
2024/04/09 04:16:05;;;;;;;0.10;0.10;;;13.10;99.90;;;;;;5510066;25;20005;-63
2024/04/09 04:18:37;;;;;;;0.10;0.10;;;13.20;99.90;;;;;;5513171;25;19993;-63
2024/04/09 04:21:05;;;;;;;0.03;0.03;;;13.20;99.90;;;;;;5511279;25;20015;-63
2024/04/09 04:23:32;;;;;;;0.20;0.20;;;13.20;99.90;;;;;;5509662;26;20005;-63
2024/04/09 04:26:02;;;;;;;0.55;0.10;;;13.20;99.90;;;;;;5510968;25;20358;-63
2024/04/09 04:28:31;;;;;;;0.10;0.10;;;13.10;99.90;;;;;;5512115;26;20008;-64
2024/04/09 04:30:58;;;;;;;0.03;0.03;;;13.20;99.90;;;;;;5479005;26;20020;-63
2024/04/09 04:33:25;;;;;;;0.10;0.10;;;13.20;99.90;;;;;;5510950;25;20054;-63
2024/04/09 04:35:53;;;;;;;0.10;0.10;;;13.20;99.90;;;;;;5511778;25;20471;-63
2024/04/09 04:38:20;;;;;;;0.20;0.20;;;13.10;99.90;;;;;;5511156;25;19998;-63
2024/04/09 04:40:47;;;;;;;0.10;0.08;;;13.10;99.90;;;;;;5511533;25;20016;-63
2024/04/09 04:43:14;;;;;;;0.10;0.00;;;13.20;99.90;;;;;;5505961;25;20005;-63
2024/04/09 04:45:41;;;;;;;0.00;0.00;;;13.10;99.90;;;;;;5511141;26;20022;-63
2024/04/09 04:48:08;;;;;;;0.03;0.03;;;13.20;99.90;;;;;;5512659;25;20034;-63
2024/04/09 04:50:36;;;;;;;0.10;0.10;;;13.20;99.90;;;;;;5510433;25;20338;-63
2024/04/09 04:53:04;;;;;;;0.10;0.10;;;13.20;99.90;;;;;;5512616;25;19997;-63
2024/04/09 04:55:32;;;;;;;0.10;0.10;;;13.10;99.90;;;;;;5510944;26;20974;-63
2024/04/09 04:58:03;;;;;;;0.00;0.00;;;13.30;99.90;;;;;;5509710;26;20006;-63
2024/04/09 05:00:30;;;;;;;0.00;0.00;;;13.30;99.90;;;;;;5509457;26;20005;-63
2024/04/09 05:02:57;;;;;;;0.10;0.10;;;13.20;99.90;;;;;;5511494;25;20007;-63
2024/04/09 05:05:25;;;;;;;0.10;0.10;;;13.30;99.90;;;;;;5509563;25;20006;-63
2024/04/09 05:07:52;;;;;;;0.00;0.00;;;13.20;99.90;;;;;;5511809;26;20946;-63
2024/04/09 05:10:20;;;;;;;0.10;0.10;;;13.20;99.90;;;;;;5510816;25;20015;-63
2024/04/09 05:12:51;;;;;;;0.10;0.10;;;13.40;99.90;;;;;;5471443;26;20006;-64
2024/04/09 05:15:19;;;;;;;0.10;0.10;;;13.40;99.90;;;;;;5504236;25;20006;-63
2024/04/09 05:17:47;;;;;;;0.10;0.10;;;13.50;99.90;;;;;;5506315;25;20354;-63
2024/04/09 05:20:16;;;;;;;0.20;0.20;;;13.50;99.90;;;;;;5477633;26;20002;-63
2024/04/09 05:22:49;;;;;;;0.15;0.08;;;13.60;99.90;;;;;;5511454;25;20355;-63
2024/04/09 05:25:17;;;;;;;0.90;0.22;;;13.50;99.90;;;;;;5510295;26;20266;-63
2024/04/09 05:27:45;;;;;;;0.17;0.17;;;13.60;99.90;;;;;;5512329;25;20025;-64
2024/04/09 05:30:13;;;;;;;0.35;0.10;;;13.60;99.90;;;;;;5511208;25;20005;-63
2024/04/09 05:32:44;;;;;;;0.30;0.00;;;13.60;99.90;;;;;;5478296;26;20023;-63
2024/04/09 05:35:14;;;;;;;0.03;0.03;;;13.70;99.90;;;;;;5489536;25;20061;-63
2024/04/09 05:37:44;;;;;;;0.00;0.00;;;13.80;99.90;;;;;;5511355;25;20448;-63
2024/04/09 05:40:12;;;;;;;0.13;0.13;;;13.80;99.90;;;;;;5457517;26;20019;-63
2024/04/09 05:42:45;;;;;;;0.10;0.10;;;13.80;99.90;;;;;;5510962;25;20562;-63
2024/04/09 05:45:14;;;;;;;0.13;0.13;;;13.80;99.90;;;;;;5509847;25;20041;-63
2024/04/09 05:47:42;;;;;;;0.20;0.20;;;13.90;99.90;;;;;;5479271;26;20004;-63
2024/04/09 05:50:09;;;;;;;0.10;0.10;;;13.90;99.90;;;;;;5510549;26;20041;-63
2024/04/09 05:52:36;;;;;;;0.10;0.10;;;13.90;99.90;;;;;;5509028;25;20448;-63
2024/04/09 05:55:05;;;;;;;0.05;0.05;;;13.90;99.90;;;;;;5477060;25;20016;-63
2024/04/09 05:57:36;;;;;;;0.10;0.03;;;13.90;99.90;;;;;;5510346;26;20019;-63
2024/04/09 06:00:09;;;;;;;0.03;0.03;;;14.00;99.90;;;;;;5510065;25;20034;-63
2024/04/09 06:02:36;;;;;;;0.00;0.00;;;14.00;99.90;;;;;;5511356;25;20005;-63
2024/04/09 06:05:04;;;;;;;0.10;0.10;;;14.10;99.90;;;;;;5509813;26;20001;-63
2024/04/09 06:07:31;;;;;;;0.15;0.15;;;14.00;99.90;;;;;;5510265;26;20359;-63
2024/04/09 06:09:59;;;;;;;0.20;0.20;;;14.00;99.90;;;;;;5498651;25;19997;-63
2024/04/09 06:12:26;;;;;;;0.22;0.22;;;13.90;99.90;;;;;;5510291;25;20040;-64
2024/04/09 06:14:53;;;;;;;0.20;0.20;;;13.90;99.90;;;;;;5510423;25;20519;-63
2024/04/09 06:17:21;;;;;;;0.13;0.13;;;13.90;99.90;;;;;;5510338;25;20050;-63
2024/04/09 06:19:48;;;;;;;0.10;0.10;;;13.80;99.90;;;;;;5509505;26;20012;-63
2024/04/09 06:22:15;;;;;;;0.10;0.10;;;13.80;99.90;;;;;;5509467;26;20401;-63
2024/04/09 06:24:43;;;;;;;0.10;0.10;;;13.70;99.90;;;;;;5510600;25;20570;-63
2024/04/09 06:27:10;;;;;;;0.73;0.20;;;13.60;99.90;;;;;;5509661;25;20023;-63
2024/04/09 06:29:37;;;;;;;0.10;0.10;;;13.60;99.90;;;;;;5510120;26;20025;-63
2024/04/09 06:32:04;;;;;;;0.00;0.00;;;13.50;99.90;;;;;;5509188;25;20045;-63
2024/04/09 06:34:32;;;;;;;0.03;0.03;;;13.30;99.90;;;;;;5509550;25;20011;-63
2024/04/09 06:37:00;;;;;;;0.40;0.20;;;13.30;99.90;;;;;;5510362;25;20422;-64
2024/04/09 06:39:27;;;;;;;0.10;0.10;;;13.20;99.90;;;;;;5509105;26;19994;-63
2024/04/09 06:41:55;;;;;;;0.10;0.10;;;13.20;99.90;;;;;;5510028;26;20012;-63
2024/04/09 06:44:23;;;;;;;0.05;0.05;;;13.20;99.90;;;;;;5509982;26;20451;-63
2024/04/09 06:46:50;;;;;;;0.85;0.20;;;13.10;99.90;;;;;;5509764;26;20016;-63
2024/04/09 06:49:17;;;;;;;0.20;0.20;;;13.10;99.90;;;;;;5510515;26;20021;-63
2024/04/09 06:51:45;;;;;;;0.10;0.10;;;13.10;99.90;;;;;;5507931;25;20013;-63
2024/04/09 06:54:12;;;;;;;0.10;0.10;;;13.00;99.90;;;;;;5510873;26;20008;-63
2024/04/09 06:56:38;;;;;;;0.30;0.00;;;13.10;99.90;;;;;;5509487;25;20401;-63
2024/04/09 06:59:05;;;;;;;0.20;0.20;;;13.10;99.90;;;;;;5510663;25;20000;-64
2024/04/09 07:01:32;;;;;;;0.05;0.05;;;13.10;99.90;;;;;;5508897;25;20006;-63
2024/04/09 07:04:00;;;;;;;0.00;0.00;;;13.20;99.90;;;;;;5512244;25;20330;-63
2024/04/09 07:06:27;;;;;;;0.00;0.00;;;13.20;99.90;;;;;;5512848;25;20012;-63
2024/04/09 07:08:55;;;;;;;0.08;0.08;;;13.30;99.90;;;;;;5513685;25;20420;-63
2024/04/09 07:11:23;;;;;;;0.00;0.00;;;13.30;99.90;;;;;;5520696;25;20016;-63
2024/04/09 07:13:50;;;;;;;0.00;0.00;;;13.30;99.90;;;;;;5507726;26;20006;-63
2024/04/09 07:16:17;;;;;;;0.00;0.00;;;13.40;99.90;;;;;;5524944;25;20452;-63
2024/04/09 07:18:44;;;;;;;0.00;0.00;;;13.50;99.90;;;;;;5522413;25;20015;-63
2024/04/09 07:21:11;;;;;;;0.00;0.00;;;13.50;99.90;;;;;;5514954;25;20012;-63
2024/04/09 07:23:38;;;;;;;0.00;0.00;;;13.50;99.90;;;;;;5525319;25;20344;-63
2024/04/09 07:26:05;;;;;;;0.13;0.00;;;13.50;99.90;;;;;;5518692;25;20044;-63
2024/04/09 07:28:32;;;;;;;0.65;0.20;;;13.50;99.90;;;;;;5477355;26;19998;-63
2024/04/09 07:31:05;;;;;;;0.00;0.00;;;13.60;99.90;;;;;;5513678;25;20013;-63
2024/04/09 07:33:32;;;;;;;0.00;0.00;;;13.60;99.90;;;;;;5485350;26;20211;-63
2024/04/09 07:35:59;;;;;;;0.28;0.10;;;13.50;99.90;;;;;;5518411;25;20434;-63
2024/04/09 07:38:26;;;;;;;0.03;0.00;;;13.50;99.90;;;;;;5512474;25;20049;-64
2024/04/09 07:40:53;;;;;;;0.00;0.00;;;13.40;99.90;;;;;;5508372;26;20359;-63
2024/04/09 07:43:20;;;;;;;0.00;0.00;;;13.40;99.90;;;;;;5527921;25;20016;-63
2024/04/09 07:45:54;;;;;;;0.00;0.00;;;13.50;99.90;;;;;;5473581;26;20005;-63
2024/04/09 07:48:21;;;;;;;0.00;0.00;;;13.50;99.90;;;;;;5510699;25;20444;-63
2024/04/09 07:50:48;;;;;;;0.00;0.00;;;13.60;99.90;;;;;;5523852;25;20965;-63
2024/04/09 07:53:16;;;;;;;0.00;0.00;;;13.60;99.90;;;;;;5525490;25;20006;-63
2024/04/09 07:55:43;;;;;;;0.00;0.00;;;13.60;99.90;;;;;;5531116;25;20015;-63
2024/04/09 07:58:11;;;;;;;0.00;0.00;;;13.60;99.90;;;;;;5533700;25;20012;-63
2024/04/09 08:00:39;;;;;;;0.00;0.00;;;13.60;99.90;;;;;;5507622;26;20006;-63
2024/04/09 08:03:05;;;;;;;0.00;0.00;;;13.50;99.90;;;;;;5502008;25;20001;-63
2024/04/09 08:05:36;;;;;;;0.03;0.00;;;13.40;99.90;;;;;;5478625;26;20005;-63
2024/04/09 08:08:04;;;;;;;0.00;0.00;;;13.30;99.90;;;;;;5466058;26;20006;-63
2024/04/09 08:10:31;;;;;;;0.00;0.00;;;13.30;99.90;;;;;;5508129;25;20006;-63
2024/04/09 08:13:00;;;;;;;0.00;0.00;;;13.30;99.90;;;;;;5516197;25;20460;-63
2024/04/09 08:15:28;;;;;;;0.00;0.00;;;13.30;99.90;;;;;;5511100;26;20041;-62
2024/04/09 08:17:56;;;;;;;0.00;0.00;;;13.40;99.90;;;;;;5514242;25;20342;-63
2024/04/09 08:20:23;;;;;;;0.00;0.00;;;13.50;99.90;;;;;;5523549;25;20379;-63
2024/04/09 08:22:50;;;;;;;0.00;0.00;;;13.50;99.90;;;;;;5521347;25;20013;-63
2024/04/09 08:25:19;;;;;;;0.00;0.00;;;13.70;99.90;;;;;;5492314;26;20002;-62
2024/04/09 08:27:46;;;;;;;0.00;0.00;;;13.60;99.90;;;;;;5502477;25;20005;-63
2024/04/09 08:30:17;;;;;;;0.00;0.00;;;13.60;99.90;;;;;;5488594;25;20352;-63
2024/04/09 08:32:50;;;;;;;0.00;0.00;;;13.60;99.90;;;;;;5512104;25;20009;-63
2024/04/09 08:35:17;;;;;;;0.03;0.03;;;13.70;99.90;;;;;;5478985;26;20358;-63
2024/04/09 08:37:47;;;;;;;0.00;0.00;;;13.70;99.90;;;;;;5489032;26;20012;-63
2024/04/09 08:40:19;;;;;;;0.00;0.00;;;13.60;99.90;;;;;;5482235;26;20462;-63
2024/04/09 08:42:47;;;;;;;0.10;0.10;;;13.60;99.90;;;;;;5510433;25;19993;-63
2024/04/09 08:45:18;;;;;;;0.00;0.00;;;13.50;99.90;;;;;;5517301;25;20322;-62
2024/04/09 08:47:48;;;;;;;0.00;0.00;;;13.50;99.90;;;;;;5512210;25;20019;-63
2024/04/09 08:50:15;;;;;;;0.00;0.00;;;13.40;99.90;;;;;;5523338;25;19993;-63
2024/04/09 08:52:42;;;;;;;0.22;0.00;;;13.50;99.90;;;;;;5510055;25;20005;-63
2024/04/09 08:55:09;;;;;;;0.00;0.00;;;13.50;99.90;;;;;;5509866;26;19997;-63
2024/04/09 08:57:38;;;;;;;0.00;0.00;;;13.50;99.90;;;;;;5477772;26;20006;-63
2024/04/09 09:00:06;;;;;;;0.00;0.00;;;13.50;99.90;;;;;;5511419;26;19997;-63
2024/04/09 09:02:37;;;;;;;0.43;0.00;;;13.50;99.90;;;;;;5508793;26;20334;-63
2024/04/09 09:05:14;;;;;;;;;;;13.50;99.90;;;;;;5511741;26;20441;-63
2024/04/09 09:07:41;;;;;;;0.03;0.03;;;13.60;99.90;;;;;;5509283;25;20292;-63
2024/04/09 09:10:10;;;;;;;0.00;0.00;;;13.60;99.90;;;;;;5510603;25;20011;-63
2024/04/09 09:12:37;;;;;;;0.00;0.00;;;13.60;99.90;;;;;;5484266;26;20689;-62
2024/04/09 09:15:05;;;;;;;0.00;0.00;;;13.60;99.90;;;;;;5519637;25;19997;-63
2024/04/09 09:17:34;;;;;;;0.00;0.00;;;13.60;99.90;;;;;;5509930;25;20365;-63
2024/04/09 09:20:14;;;;;;;0.00;0.00;;;13.50;99.90;;;;;;5527941;25;20443;-63
2024/04/09 09:22:45;;;;;;;0.00;0.00;;;13.40;99.90;;;;;;5468969;26;20005;-63
2024/04/09 09:25:18;;;;;;;0.00;0.00;;;13.40;99.90;;;;;;5509680;25;20012;-63
2024/04/09 09:27:45;;;;;;;0.00;0.00;;;13.30;99.90;;;;;;5508041;25;20529;-63
2024/04/09 09:30:14;;;;;;;0.00;0.00;;;13.40;99.90;;;;;;5536600;25;20351;-63
2024/04/09 09:32:49;;;;;;;0.00;0.00;;;13.40;99.90;;;;;;5472873;26;20005;-63
2024/04/09 09:35:17;;;;;;;0.10;0.10;;;13.30;99.90;;;;;;5491320;25;20007;-63
2024/04/09 09:37:49;;;;;;;0.00;0.00;;;13.30;99.90;;;;;;5509658;25;20020;-63
2024/04/09 09:40:16;;;;;;;0.00;0.00;;;13.30;99.90;;;;;;5518221;25;20347;-63
2024/04/09 09:42:47;;;;;;;0.00;0.00;;;13.30;99.90;;;;;;5482360;25;20004;-63
2024/04/09 09:45:14;;;;;;;0.00;0.00;;;13.40;99.90;;;;;;5505166;26;20020;-63
2024/04/09 09:47:43;;;;;;;0.38;0.10;;;13.50;99.90;;;;;;5507873;25;20006;-63
2024/04/09 09:50:11;;;;;;;0.00;0.00;;;13.60;99.90;;;;;;5506475;25;20001;-63
2024/04/09 09:52:42;;;;;;;0.00;0.00;;;13.70;99.90;;;;;;5473102;25;20416;-64
2024/04/09 09:55:09;;;;;;;0.00;0.00;;;13.90;99.90;;;;;;5516138;25;20001;-63
2024/04/09 09:57:41;;;;;;;0.00;0.00;;;14.10;99.90;;;;;;5509491;25;20353;-63
2024/04/09 10:00:12;;;;;;;0.00;0.00;;;14.40;99.90;;;;;;5505567;26;19993;-63
2024/04/09 10:02:41;;;;;;;0.00;0.00;;;14.60;99.90;;;;;;5503804;25;20623;-63
2024/04/09 10:05:11;;;;;;;0.20;0.20;;;14.70;99.90;;;;;;5509018;26;19998;-63
2024/04/09 10:07:38;;;;;;;0.10;0.10;;;14.80;99.90;;;;;;5504735;26;20005;-64
2024/04/09 10:10:05;;;;;;;0.03;0.00;;;15.00;99.90;;;;;;5508654;25;20019;-63
2024/04/09 10:12:35;;;;;;;0.10;0.10;;;15.10;99.90;;;;;;5508074;26;20342;-63
2024/04/09 10:15:04;;;;;;;0.00;0.00;;;15.10;99.90;;;;;;5520038;25;20004;-63
2024/04/09 10:17:49;;;;;;;0.55;0.25;;;15.10;1.00;;;;;;5506659;25;20001;-63
2024/04/09 10:20:17;;;;;;;0.10;0.10;;;15.30;1.00;;;;;;5510566;25;20008;-63
2024/04/09 10:22:44;;;;;;;0.08;0.08;;;15.40;99.90;;;;;;5508393;25;20462;-63
2024/04/09 10:25:22;;;;;;;0.10;0.10;;;15.60;99.90;;;;;;5507531;26;20005;-63
2024/04/09 10:28:02;;;;;;;1.95;0.30;;;15.70;59.20;;;;;;5438617;26;20030;-63
2024/04/09 10:30:32;;;;;;;0.20;0.20;;;15.80;99.90;;;;;;5417272;26;20017;-63
2024/04/09 10:33:04;;;;;;;0.00;0.00;;;15.70;21.00;;;;;;5428231;26;20010;-63
2024/04/09 10:35:31;;;;;;;1.52;0.28;;;15.70;1.00;;;;;;5434541;26;20330;-63
2024/04/09 10:38:05;;;;;;;0.52;0.43;;;15.50;99.90;;;;;;5434530;26;20003;-63
2024/04/09 10:40:36;;;;;;;0.10;0.10;;;15.40;1.00;;;;;;5441217;26;20005;-64
2024/04/09 10:43:07;;;;;;;0.05;0.05;;;15.30;1.00;;;;;;5456826;26;20020;-63
2024/04/09 10:45:35;;;;;;;0.22;0.22;;;15.30;1.00;;;;;;5405291;26;20009;-63
2024/04/09 10:48:03;;;;;;;0.10;0.10;;;15.30;1.00;;;;;;5443374;26;20044;-63
2024/04/09 10:50:31;;;;;;;0.10;0.10;;;15.40;1.00;;;;;;5435319;26;19998;-63
2024/04/09 10:52:58;;;;;;;0.30;0.20;;;15.60;29.50;;;;;;5444115;26;20503;-63
2024/04/09 10:55:26;;;;;;;0.17;0.17;;;15.80;1.00;;;;;;5437480;26;19999;-63
2024/04/09 10:57:54;;;;;;;0.30;0.20;;;15.90;99.90;;;;;;5437446;26;20003;-63
2024/04/09 11:00:22;;;;;;;0.45;0.25;;;15.90;99.90;;;;;;5437574;26;20423;-63
2024/04/09 11:02:49;;;;;;;2.67;0.30;;;15.80;99.90;;;;;;5434291;26;20002;-63
2024/04/09 11:05:17;;;;;;;0.38;0.38;;;15.70;99.90;;;;;;5437047;26;20474;-63
2024/04/09 11:07:46;;;;;;;1.20;0.20;;;15.80;1.00;;;;;;5439322;26;20006;-64
2024/04/09 11:10:16;;;;;;;0.05;0.05;;;15.80;1.00;;;;;;5436667;26;20376;-63
2024/04/09 11:12:46;;;;;;;0.10;0.10;;;15.90;99.90;;;;;;5431820;26;20025;-63
2024/04/09 11:15:14;;;;;;;0.20;0.20;;;15.80;99.90;;;;;;5436796;26;19998;-63
2024/04/09 11:17:43;;;;;;;0.00;0.00;;;15.70;99.90;;;;;;5435082;26;20017;-63
2024/04/09 11:20:15;;;;;;;2.63;0.10;;;15.60;99.90;;;;;;5436491;26;20477;-63
2024/04/09 11:22:41;;;;;;;0.00;0.00;;;15.50;99.90;;;;;;5436125;26;20007;-63
2024/04/09 11:25:11;;;;;;;0.10;0.10;;;15.40;99.90;;;;;;5436474;26;19998;-63
2024/04/09 11:27:42;;;;;;;0.30;0.20;;;15.30;99.90;;;;;;5495725;25;20016;-63
2024/04/09 11:30:20;;;;;;;0.10;0.10;;;15.30;99.90;;;;;;5475514;26;20029;-63
2024/04/09 11:32:50;;;;;;;0.00;0.00;;;15.20;99.90;;;;;;5504469;25;20005;-63
2024/04/09 11:35:19;;;;;;;0.08;0.08;;;15.20;99.90;;;;;;5447466;26;20005;-63
2024/04/09 11:37:57;;;;;;;0.00;0.00;;;15.30;99.90;;;;;;5507598;26;20005;-62
2024/04/09 11:40:29;;;;;;;0.00;0.00;;;15.30;99.90;;;;;;5504006;25;19998;-63
2024/04/09 11:42:58;;;;;;;0.00;0.00;;;15.30;99.90;;;;;;5502378;25;20493;-63
2024/04/09 11:45:30;;;;;;;0.00;0.00;;;15.50;99.90;;;;;;5516032;25;20006;-63
2024/04/09 11:47:58;;;;;;;0.00;0.00;;;15.50;99.90;;;;;;5519608;25;20018;-63
2024/04/09 11:50:25;;;;;;;0.20;0.20;;;15.70;99.90;;;;;;5525024;25;19997;-63
2024/04/09 11:52:52;;;;;;;0.00;0.00;;;15.90;99.90;;;;;;5510651;26;20358;-63
2024/04/09 11:55:20;;;;;;;0.10;0.10;;;16.20;99.90;;;;;;5506895;25;20015;-63
2024/04/09 11:57:47;;;;;;;0.00;0.00;;;16.20;99.90;;;;;;5509529;26;20015;-62
2024/04/09 12:00:15;;;;;;;0.10;0.10;;;16.20;99.90;;;;;;5507691;25;20013;-62
2024/04/09 12:02:44;;;;;;;0.00;0.00;;;16.20;99.90;;;;;;5509611;25;20412;-63
2024/04/09 12:05:13;;;;;;;0.00;0.00;;;16.10;99.90;;;;;;5503824;25;20001;-63
2024/04/09 12:07:44;;;;;;;0.00;0.00;;;16.00;99.90;;;;;;5477449;26;20501;-62
2024/04/09 12:10:11;;;;;;;0.00;0.00;;;15.80;99.90;;;;;;5509470;25;20005;-63
2024/04/09 12:12:38;;;;;;;0.10;0.10;;;15.60;99.90;;;;;;5509615;25;20064;-63
2024/04/09 12:15:06;;;;;;;0.00;0.00;;;15.50;99.90;;;;;;5480101;26;20006;-63
2024/04/09 12:17:34;;;;;;;0.65;0.10;;;15.30;99.90;;;;;;5511738;25;20033;-63
2024/04/09 12:20:02;;;;;;;0.20;0.20;;;15.30;88.50;;;;;;5481711;26;20001;-63
2024/04/09 12:22:30;;;;;;;0.00;0.00;;;15.30;99.30;;;;;;5476349;26;20578;-63
2024/04/09 12:24:57;;;;;;;0.28;0.03;;;15.30;99.90;;;;;;5493774;25;20492;-63
2024/04/09 12:27:24;;;;;;;0.00;0.00;;;15.30;93.70;;;;;;5477834;26;20005;-63
2024/04/09 12:29:52;;;;;;;0.00;0.00;;;15.20;95.40;;;;;;5508120;25;20495;-63
2024/04/09 12:32:20;;;;;;;0.82;0.20;;;15.10;99.90;;;;;;5478908;26;20001;-63
2024/04/09 12:34:48;;;;;;;0.10;0.10;;;15.00;99.90;;;;;;5510802;25;20020;-63
2024/04/09 12:37:15;;;;;;;1.35;0.38;;;15.00;99.90;;;;;;5508700;25;20005;-63
2024/04/09 12:39:43;;;;;;;0.10;0.10;;;15.00;99.90;;;;;;5512384;25;20021;-62
2024/04/09 12:42:09;;;;;;;0.00;0.00;;;14.90;99.90;;;;;;5508155;25;20028;-63
2024/04/09 12:44:37;;;;;;;0.10;0.10;;;14.90;99.90;;;;;;5511262;25;20015;-63
2024/04/09 12:47:05;;;;;;;0.10;0.00;;;15.00;99.90;;;;;;5507114;26;20034;-63
2024/04/09 12:49:33;;;;;;;0.85;0.28;;;14.90;99.90;;;;;;5474297;26;20079;-63
2024/04/09 12:52:01;;;;;;;0.20;0.20;;;14.80;99.90;;;;;;5510095;25;20406;-63
2024/04/09 12:54:29;;;;;;;0.10;0.10;;;14.80;99.90;;;;;;5510759;25;20409;-63